createdAt,value
2023-05-12T00:01:10.256Z,100964.22
2023-05-12T00:03:37.154Z,100976.09
2023-05-12T00:06:05.592Z,100978.03
2023-05-12T00:08:32.212Z,100978.03
2023-05-12T00:10:59.163Z,100985.81
2023-05-12T00:13:25.873Z,100987.72
2023-05-12T00:15:52.675Z,100992.34
2023-05-12T00:18:19.655Z,100991.09
2023-05-12T00:20:46.561Z,100994.06
2023-05-12T00:23:15.176Z,100992.34
2023-05-12T00:25:41.902Z,100986.63
2023-05-12T00:28:08.602Z,100992.94
2023-05-12T00:30:35.447Z,101002.44
2023-05-12T00:33:02.433Z,100998.91
2023-05-12T00:35:29.280Z,101000.16
2023-05-12T00:37:55.999Z,101000.59
2023-05-12T00:40:24.198Z,100995.28
2023-05-12T00:42:51.246Z,100995.50
2023-05-12T00:45:18.369Z,101006.47
2023-05-12T00:47:45.817Z,101002.03
2023-05-12T00:50:12.636Z,101003.47
2023-05-12T00:52:39.546Z,101003.91
2023-05-12T00:55:06.934Z,101003.00
2023-05-12T00:57:35.154Z,101011.16
2023-05-12T01:00:01.810Z,101008.69
2023-05-12T01:02:29.208Z,101009.91
2023-05-12T01:04:56.052Z,101009.94
2023-05-12T01:07:23.181Z,101014.59
2023-05-12T01:09:54.770Z,101014.38
2023-05-12T01:12:21.714Z,101023.06
2023-05-12T01:14:51.821Z,101025.19
2023-05-12T01:17:22.762Z,101032.81
2023-05-12T01:19:53.792Z,101033.00
2023-05-12T01:22:20.973Z,101036.56
2023-05-12T01:24:50.942Z,101037.19
2023-05-12T01:27:20.853Z,101035.97
2023-05-12T01:29:48.254Z,101044.16
2023-05-12T01:32:16.013Z,101047.75
2023-05-12T01:34:43.550Z,101058.13
2023-05-12T01:37:10.602Z,101051.94
2023-05-12T01:39:37.799Z,101060.31
2023-05-12T01:42:05.345Z,101060.13
2023-05-12T01:44:33.557Z,101064.38
2023-05-12T01:47:01.609Z,101060.97
2023-05-12T01:49:28.574Z,101059.72
2023-05-12T01:51:55.364Z,101066.22
2023-05-12T01:54:22.010Z,101063.47
2023-05-12T01:56:48.737Z,101069.25
2023-05-12T01:59:15.475Z,101069.53
2023-05-12T02:01:43.923Z,101068.72
2023-05-12T02:04:11.087Z,101068.94
2023-05-12T02:06:37.873Z,101081.66
2023-05-12T02:09:04.580Z,101076.13
2023-05-12T02:11:31.356Z,101074.78
2023-05-12T02:13:58.047Z,101082.75
2023-05-12T02:16:25.124Z,101081.72
2023-05-12T02:18:53.532Z,101081.38
2023-05-12T02:21:20.230Z,101083.34
2023-05-12T02:23:47.267Z,101083.56
2023-05-12T02:26:13.993Z,101092.41
2023-05-12T02:28:41.233Z,101082.31
2023-05-12T02:31:07.954Z,101083.44
2023-05-12T02:33:34.721Z,101087.88
2023-05-12T02:36:03.206Z,101089.84
2023-05-12T02:38:29.882Z,101090.84
2023-05-12T02:40:57.069Z,101093.97
2023-05-12T02:43:23.722Z,101102.91
2023-05-12T02:45:50.978Z,101103.97
2023-05-12T02:48:17.712Z,101097.88
2023-05-12T02:50:44.705Z,101100.84
2023-05-12T02:53:13.169Z,101103.69
2023-05-12T02:55:39.895Z,101104.00
2023-05-12T02:58:06.628Z,101100.91
2023-05-12T03:00:33.467Z,101112.31
2023-05-12T03:03:00.493Z,101116.63
2023-05-12T03:05:28.515Z,101119.00
2023-05-12T03:07:56.123Z,101111.38
2023-05-12T03:10:25.769Z,101099.56
2023-05-12T03:12:53.465Z,101105.03
2023-05-12T03:15:21.064Z,101094.63
2023-05-12T03:17:48.692Z,101102.47
2023-05-12T03:20:16.032Z,101096.84
2023-05-12T03:22:43.621Z,101097.66
2023-05-12T03:25:11.040Z,101108.25
2023-05-12T03:27:40.522Z,101109.09
2023-05-12T03:30:09.602Z,101108.25
2023-05-12T03:32:37.206Z,101111.00
2023-05-12T03:35:05.010Z,101109.84
2023-05-12T03:37:32.568Z,101116.94
2023-05-12T03:40:00.163Z,101121.19
2023-05-12T03:42:27.431Z,101120.09
2023-05-12T03:44:56.665Z,101130.50
2023-05-12T03:47:24.136Z,101129.25
2023-05-12T03:49:52.015Z,101132.97
2023-05-12T03:52:19.659Z,101139.44
2023-05-12T03:54:46.939Z,101140.03
2023-05-12T03:57:14.152Z,101146.19
2023-05-12T03:59:41.844Z,101140.59
2023-05-12T04:02:10.671Z,101144.16
2023-05-12T04:04:38.535Z,101148.06
2023-05-12T04:07:06.215Z,101149.81
2023-05-12T04:09:33.900Z,101160.63
2023-05-12T04:12:01.408Z,101157.97
2023-05-12T04:14:41.668Z,101160.91
2023-05-12T04:17:11.682Z,101161.28
2023-05-12T04:19:39.341Z,101170.44
2023-05-12T04:22:07.185Z,101160.88
2023-05-12T04:24:35.132Z,101171.59
2023-05-12T04:27:02.633Z,101171.78
2023-05-12T04:29:29.947Z,101175.19
2023-05-12T04:31:57.584Z,101178.03
2023-05-12T04:34:26.358Z,101173.75
2023-05-12T04:36:53.619Z,101176.59
2023-05-12T04:39:20.766Z,101188.47
2023-05-12T04:41:48.396Z,101181.19
2023-05-12T04:44:15.736Z,101187.97
2023-05-12T04:46:43.047Z,101183.97
2023-05-12T04:49:10.591Z,101187.84
2023-05-12T04:51:39.680Z,101195.69
2023-05-12T04:54:06.874Z,101198.03
2023-05-12T04:56:34.830Z,101203.31
2023-05-12T04:59:02.025Z,101205.41
2023-05-12T05:01:29.568Z,101216.09
2023-05-12T05:03:57.558Z,101218.19
2023-05-12T05:06:24.752Z,101223.59
2023-05-12T05:08:53.407Z,101221.47
2023-05-12T05:11:21.242Z,101220.81
2023-05-12T05:13:48.828Z,101221.28
2023-05-12T05:16:16.768Z,101221.97
2023-05-12T05:18:44.206Z,101234.66
2023-05-12T05:21:11.460Z,101230.94
2023-05-12T05:23:38.995Z,101225.47
2023-05-12T05:26:08.100Z,101239.81
2023-05-12T05:28:36.174Z,101241.25
2023-05-12T05:31:03.539Z,101246.16
2023-05-12T05:33:31.216Z,101254.94
2023-05-12T05:35:58.821Z,101259.34
2023-05-12T05:38:26.323Z,101262.16
2023-05-12T05:40:54.710Z,101262.25
2023-05-12T05:43:24.040Z,101259.28
2023-05-12T05:45:52.798Z,101262.72
2023-05-12T05:48:20.187Z,101265.50
2023-05-12T05:50:47.592Z,101269.59
2023-05-12T05:53:14.799Z,101271.91
2023-05-12T05:55:42.434Z,101276.19
2023-05-12T05:58:09.740Z,101283.59
2023-05-12T06:00:40.439Z,101284.63
2023-05-12T06:03:07.949Z,101289.72
2023-05-12T06:05:35.253Z,101290.75
2023-05-12T06:08:02.625Z,101298.31
2023-05-12T06:10:29.995Z,101302.31
2023-05-12T06:12:57.273Z,101304.16
2023-05-12T06:15:24.486Z,101304.09
2023-05-12T06:17:53.997Z,101308.72
2023-05-12T06:20:21.842Z,101315.81
2023-05-12T06:22:51.871Z,101322.38
2023-05-12T06:25:19.446Z,101328.75
2023-05-12T06:27:47.230Z,101328.25
2023-05-12T06:30:16.329Z,101321.06
2023-05-12T06:32:44.059Z,101321.84
2023-05-12T06:35:13.109Z,101317.06
2023-05-12T06:37:40.490Z,101308.16
2023-05-12T06:40:09.137Z,101312.38
2023-05-12T06:42:36.367Z,101317.28
2023-05-12T06:45:03.768Z,101320.47
2023-05-12T06:47:31.436Z,101324.69
2023-05-12T06:49:59.044Z,101324.91
2023-05-12T06:52:27.809Z,101330.19
2023-05-12T06:54:55.139Z,101328.63
2023-05-12T06:57:22.345Z,101334.41
2023-05-12T06:59:49.085Z,101339.09
2023-05-12T07:02:16.364Z,101344.00
2023-05-12T07:04:43.629Z,101345.03
2023-05-12T07:07:11.033Z,101336.13
2023-05-12T07:09:40.569Z,101339.53
2023-05-12T07:12:08.089Z,101335.31
2023-05-12T07:14:35.661Z,101338.25
2023-05-12T07:17:03.081Z,101350.94
2023-05-12T07:19:30.448Z,101354.53
2023-05-12T07:21:57.648Z,101345.91
2023-05-12T07:24:25.213Z,101348.59
2023-05-12T07:26:54.266Z,101353.66
2023-05-12T07:29:21.633Z,101359.56
2023-05-12T07:31:49.335Z,101356.03
2023-05-12T07:34:16.624Z,101356.25
2023-05-12T07:36:43.941Z,101356.44
2023-05-12T07:39:11.621Z,101369.72
2023-05-12T07:41:38.934Z,101355.88
2023-05-12T07:44:07.680Z,101376.09
2023-05-12T07:46:35.145Z,101382.66
2023-05-12T07:49:02.496Z,101383.19
2023-05-12T07:51:29.718Z,101393.03
2023-05-12T07:53:57.355Z,101386.97
2023-05-12T07:56:25.206Z,101393.94
2023-05-12T07:58:52.492Z,101395.19
2023-05-12T08:01:22.037Z,101382.97
2023-05-12T08:03:49.044Z,101387.47
2023-05-12T08:06:15.708Z,101392.38
2023-05-12T08:08:43.352Z,101391.13
2023-05-12T08:11:11.226Z,101395.22
2023-05-12T08:13:38.890Z,101407.53
2023-05-12T08:16:06.699Z,101403.03
2023-05-12T08:18:35.892Z,101404.19
2023-05-12T08:21:03.666Z,101407.50
2023-05-12T08:23:30.987Z,101411.31
2023-05-12T08:25:58.388Z,101399.78
2023-05-12T08:28:26.319Z,101396.63
2023-05-12T08:30:55.474Z,101401.59
2023-05-12T08:33:22.852Z,101395.75
2023-05-12T08:35:52.762Z,101402.59
2023-05-12T08:38:20.668Z,101396.41
2023-05-12T08:40:57.035Z,101409.56
2023-05-12T08:43:26.159Z,101414.78
2023-05-12T08:45:54.085Z,101423.25
2023-05-12T08:48:22.698Z,101414.50
2023-05-12T08:50:53.902Z,101422.22
2023-05-12T08:53:22.329Z,101432.06
2023-05-12T08:57:08.197Z,101430.00
2023-05-12T08:58:41.623Z,101422.53
2023-05-12T09:01:12.063Z,101423.88
2023-05-12T09:03:40.306Z,101417.09
2023-05-12T09:06:10.382Z,101423.19
2023-05-12T09:08:38.171Z,101416.97
2023-05-12T09:11:06.165Z,101421.53
2023-05-12T09:13:48.207Z,101422.16
2023-05-12T09:16:16.866Z,101421.72
2023-05-12T09:18:50.228Z,101425.97
2023-05-12T09:21:18.762Z,101424.78
2023-05-12T09:24:04.120Z,101422.66
2023-05-12T09:26:31.350Z,101419.56
2023-05-12T09:29:05.681Z,101422.50
2023-05-12T09:31:33.050Z,101428.28
2023-05-12T09:34:00.477Z,101432.22
2023-05-12T09:36:29.431Z,101420.63
2023-05-12T09:39:00.882Z,101424.16
2023-05-12T09:41:30.843Z,101430.16
2023-05-12T09:44:00.466Z,101435.44
2023-05-12T09:46:28.185Z,101432.78
2023-05-12T09:48:57.034Z,101430.00
2023-05-12T09:51:24.844Z,101428.44
2023-05-12T09:53:53.960Z,101433.63
2023-05-12T09:56:21.212Z,101434.69
2023-05-12T09:58:50.504Z,101428.91
2023-05-12T11:04:20.465Z,101441.09
2023-05-12T11:06:59.335Z,101436.56
2023-05-12T11:09:27.318Z,101449.28
2023-05-12T11:11:55.001Z,101455.34
2023-05-12T11:14:23.391Z,101468.81
2023-05-12T11:16:51.126Z,101454.63
2023-05-12T11:19:19.443Z,101466.00
2023-05-12T11:21:46.799Z,101462.66
2023-05-12T11:24:15.911Z,101460.13
2023-05-12T11:26:43.244Z,101462.66
2023-05-12T11:29:10.518Z,101469.56
2023-05-12T11:31:39.465Z,101461.59
2023-05-12T11:34:12.661Z,101463.41
2023-05-12T11:36:42.682Z,101465.25
2023-05-12T11:39:17.083Z,101475.72
2023-05-12T11:41:44.495Z,101476.22
2023-05-12T11:44:16.783Z,101474.13
2023-05-12T11:46:57.199Z,101479.13
2023-05-12T11:49:25.399Z,101485.16
2023-05-12T11:51:54.402Z,101493.34
2023-05-12T11:54:24.139Z,101482.78
2023-05-12T11:56:52.399Z,101494.00
2023-05-12T11:59:30.747Z,101494.50
2023-05-12T12:01:58.793Z,101498.03
2023-05-12T12:04:36.329Z,101510.00
2023-05-12T12:07:04.774Z,101499.38
2023-05-12T12:09:34.932Z,101499.56
2023-05-12T12:12:05.774Z,101497.97
2023-05-12T12:14:34.038Z,101494.72
2023-05-12T12:17:01.863Z,101492.34
2023-05-12T12:19:29.606Z,101499.72
2023-05-12T12:21:57.787Z,101499.31
2023-05-12T12:24:25.785Z,101490.53
2023-05-12T12:26:54.716Z,101500.56
2023-05-12T12:29:21.881Z,101502.03
2023-05-12T12:31:49.073Z,101515.22
2023-05-12T12:34:16.765Z,101503.09
2023-05-12T12:36:44.090Z,101511.31
2023-05-12T12:39:11.342Z,101513.31
2023-05-12T12:41:38.787Z,101504.94
2023-05-12T12:44:07.055Z,101513.06
2023-05-12T12:46:34.683Z,101498.03
2023-05-12T12:49:02.714Z,101505.56
2023-05-12T12:51:44.517Z,101515.31
2023-05-12T12:54:13.243Z,101514.16
2023-05-12T12:56:40.649Z,101527.09
2023-05-12T12:59:09.334Z,101522.97
2023-05-12T13:01:36.790Z,101516.47
2023-05-12T13:04:04.093Z,101526.81
2023-05-12T13:06:31.237Z,101525.81
2023-05-12T13:08:58.826Z,101524.84
2023-05-12T13:11:26.178Z,101531.25
2023-05-12T13:13:53.518Z,101528.56
2023-05-12T13:16:22.709Z,101528.03
2023-05-12T13:18:50.175Z,101531.28
2023-05-12T13:21:17.969Z,101526.59
2023-05-12T13:23:45.669Z,101535.72
2023-05-12T13:26:13.467Z,101537.69
2023-05-12T13:28:40.891Z,101539.47
2023-05-12T13:31:08.367Z,101537.25
2023-05-12T13:33:37.002Z,101540.53
2023-05-12T13:36:04.591Z,101544.25
2023-05-12T13:38:31.939Z,101532.22
2023-05-12T13:40:59.212Z,101541.38
2023-05-12T13:43:26.398Z,101544.16
2023-05-12T13:45:53.988Z,101548.88
2023-05-12T13:48:21.255Z,101544.97
2023-05-12T13:50:50.457Z,101543.09
2023-05-12T13:53:18.169Z,101554.47
2023-05-12T13:55:44.879Z,101541.72
2023-05-12T13:58:11.960Z,101548.91
2023-05-12T14:00:39.299Z,101543.75
2023-05-12T14:03:06.691Z,101542.09
2023-05-12T14:05:34.007Z,101555.69
2023-05-12T14:08:02.988Z,101552.41
2023-05-12T14:10:29.780Z,101553.84
2023-05-12T14:12:57.329Z,101557.72
2023-05-12T14:15:32.981Z,101554.09
2023-05-12T14:18:03.945Z,101558.97
2023-05-12T14:20:31.632Z,101553.47
2023-05-12T14:22:59.000Z,101538.75
2023-05-12T14:25:28.075Z,101546.00
2023-05-12T14:27:55.464Z,101547.63
2023-05-12T14:30:23.115Z,101546.78
2023-05-12T14:32:50.474Z,101551.78
2023-05-12T14:35:18.357Z,101545.75
2023-05-12T14:37:45.660Z,101549.59
2023-05-12T14:40:14.613Z,101549.22
2023-05-12T14:42:43.593Z,101553.53
2023-05-12T14:45:11.466Z,101551.25
2023-05-12T14:47:39.214Z,101548.56
2023-05-12T14:50:08.054Z,101552.88
2023-05-12T14:52:35.664Z,101546.94
2023-05-12T14:55:02.988Z,101548.50
2023-05-12T14:57:30.516Z,101549.78
2023-05-12T14:59:59.625Z,101548.72
2023-05-12T15:02:28.523Z,101543.63
2023-05-12T15:04:55.752Z,101549.66
2023-05-12T15:07:23.314Z,101547.69
2023-05-12T15:09:51.005Z,101539.81
2023-05-12T15:12:19.384Z,101543.63
2023-05-12T15:14:46.670Z,101542.88
2023-05-12T15:17:15.315Z,101544.81
2023-05-12T15:19:43.002Z,101548.00
2023-05-12T15:22:10.420Z,101539.31
2023-05-12T15:24:37.630Z,101541.69
2023-05-12T15:27:05.836Z,101545.78
2023-05-12T15:29:33.202Z,101547.75
2023-05-12T15:32:00.417Z,101554.09
2023-05-12T15:34:29.681Z,101552.38
2023-05-12T15:36:57.057Z,101548.41
2023-05-12T15:39:24.490Z,101554.97
2023-05-12T15:41:51.814Z,101551.16
2023-05-12T15:44:18.970Z,101546.72
2023-05-12T15:46:46.186Z,101543.28
2023-05-12T15:49:14.057Z,101538.72
2023-05-12T15:51:42.773Z,101531.88
2023-05-12T15:54:09.999Z,101526.63
2023-05-12T15:56:37.477Z,101527.63
2023-05-12T15:59:05.201Z,101527.91
2023-05-12T16:01:33.354Z,101531.81
2023-05-12T16:04:00.974Z,101529.41
2023-05-12T16:06:28.530Z,101529.56
2023-05-12T16:08:57.139Z,101527.75
2023-05-12T16:11:24.495Z,101522.03
2023-05-12T16:13:52.314Z,101525.03
2023-05-12T16:16:19.909Z,101523.53
2023-05-12T16:18:49.675Z,101526.38
2023-05-12T16:21:16.932Z,101526.34
2023-05-12T16:23:44.084Z,101521.09
2023-05-12T16:26:12.975Z,101531.19
2023-05-12T16:28:40.116Z,101525.19
2023-05-12T16:31:07.503Z,101532.34
2023-05-12T16:33:34.830Z,101542.81
2023-05-12T16:36:02.170Z,101539.41
2023-05-12T16:38:29.377Z,101535.88
2023-05-12T16:40:56.987Z,101533.22
2023-05-12T16:43:26.112Z,101537.91
2023-05-12T16:45:59.750Z,101544.50
2023-05-12T16:48:27.554Z,101544.38
2023-05-12T16:51:02.123Z,101538.19
2023-05-12T16:53:30.243Z,101541.47
2023-05-12T16:55:57.803Z,101545.06
2023-05-12T16:58:28.225Z,101538.81
2023-05-12T17:00:55.545Z,101532.88
2023-05-12T17:03:22.878Z,101529.44
2023-05-12T17:05:50.286Z,101538.81
2023-05-12T17:08:18.885Z,101537.09
2023-05-12T17:10:46.258Z,101538.31
2023-05-12T17:13:14.272Z,101539.78
2023-05-12T17:15:43.341Z,101541.53
2023-05-12T17:18:10.536Z,101546.00
2023-05-12T17:20:38.001Z,101544.75
2023-05-12T17:23:05.109Z,101531.34
2023-05-12T17:25:32.756Z,101547.63
2023-05-12T17:28:00.863Z,101550.44
2023-05-12T17:30:27.687Z,101544.31
2023-05-12T17:32:56.522Z,101547.28
2023-05-12T17:35:24.693Z,101543.03
2023-05-12T17:37:52.075Z,101554.53
2023-05-12T17:40:19.671Z,101556.63
2023-05-12T17:42:46.588Z,101562.88
2023-05-12T17:45:13.412Z,101560.22
2023-05-12T17:47:40.494Z,101557.16
2023-05-12T17:50:10.398Z,101561.63
2023-05-12T17:52:37.594Z,101562.69
2023-05-12T17:55:05.600Z,101571.78
2023-05-12T17:57:32.939Z,101572.34
2023-05-12T17:59:59.833Z,101568.78
2023-05-12T18:02:26.712Z,101571.72
2023-05-12T18:04:53.796Z,101569.03
2023-05-12T18:07:22.827Z,101575.56
2023-05-12T18:09:49.662Z,101576.22
2023-05-12T18:12:16.880Z,101574.97
2023-05-12T18:14:44.075Z,101568.94
2023-05-12T18:17:11.440Z,101570.59
2023-05-12T18:19:39.100Z,101567.75
2023-05-12T18:22:06.565Z,101569.00
2023-05-12T18:24:35.547Z,101572.56
2023-05-12T18:27:03.549Z,101575.00
2023-05-12T18:29:32.011Z,101578.34
2023-05-12T18:31:59.133Z,101573.94
2023-05-12T18:34:26.662Z,101577.22
2023-05-12T18:36:54.012Z,101580.38
2023-05-12T18:39:21.492Z,101577.19
2023-05-12T18:41:50.633Z,101577.88
2023-05-12T18:44:18.041Z,101582.44
2023-05-12T18:46:45.244Z,101579.25
2023-05-12T18:49:12.792Z,101587.66
2023-05-12T18:51:40.103Z,101589.59
2023-05-12T18:54:06.807Z,101588.09
2023-05-12T18:56:34.118Z,101591.84
2023-05-12T18:59:02.855Z,101598.19
2023-05-12T19:01:30.470Z,101602.31
2023-05-12T19:03:57.830Z,101598.47
2023-05-12T19:06:25.405Z,101592.25
2023-05-12T19:08:52.663Z,101596.41
2023-05-12T19:11:20.418Z,101592.69
2023-05-12T19:13:47.797Z,101593.28
2023-05-12T19:16:16.452Z,101592.47
2023-05-12T19:18:44.013Z,101595.78
2023-05-12T19:21:11.906Z,101597.84
2023-05-12T19:23:39.415Z,101602.88
2023-05-12T19:26:06.815Z,101597.47
2023-05-12T19:28:33.899Z,101601.13
2023-05-12T19:31:01.576Z,101599.41
2023-05-12T19:33:31.142Z,101600.59
2023-05-12T19:35:58.385Z,101611.59
2023-05-12T19:38:25.694Z,101618.41
2023-05-12T19:40:53.014Z,101620.09
2023-05-12T19:43:20.401Z,101629.41
2023-05-12T19:45:47.666Z,101629.03
2023-05-12T19:48:15.276Z,101637.63
2023-05-12T19:50:44.298Z,101629.72
2023-05-12T19:53:11.489Z,101644.13
2023-05-12T19:55:38.735Z,101640.31
2023-05-12T19:58:06.378Z,101640.94
2023-05-12T20:00:34.007Z,101658.44
2023-05-12T20:03:04.341Z,101651.59
2023-05-12T20:05:31.967Z,101651.31
2023-05-12T20:08:00.763Z,101655.47
2023-05-12T20:10:28.076Z,101651.78
2023-05-12T20:12:56.516Z,101659.94
2023-05-12T20:15:23.825Z,101657.22
2023-05-12T20:17:51.158Z,101659.25
2023-05-12T20:20:18.462Z,101663.75
2023-05-12T20:22:46.005Z,101666.53
2023-05-12T20:25:15.218Z,101659.63
2023-05-12T20:27:42.687Z,101664.50
2023-05-12T20:30:10.462Z,101666.41
2023-05-12T20:32:37.630Z,101658.31
2023-05-12T20:35:05.629Z,101666.66
2023-05-12T20:37:32.419Z,101669.22
2023-05-12T20:39:59.461Z,101665.03
2023-05-12T20:42:27.944Z,101664.84
2023-05-12T20:44:54.705Z,101649.22
2023-05-12T20:47:21.636Z,101646.81
2023-05-12T20:49:48.413Z,101661.25
2023-05-12T20:52:15.432Z,101659.38
2023-05-12T20:54:42.373Z,101667.59
2023-05-12T20:57:09.262Z,101666.88
2023-05-12T20:59:38.044Z,101663.94
2023-05-12T21:02:06.336Z,101659.88
2023-05-12T21:04:33.198Z,101670.06
2023-05-12T21:07:00.571Z,101668.59
2023-05-12T21:09:27.668Z,101666.66
2023-05-12T21:11:54.499Z,101671.72
2023-05-12T21:14:21.176Z,101670.66
2023-05-12T21:16:49.570Z,101670.94
2023-05-12T21:19:16.520Z,101679.06
2023-05-12T21:21:43.301Z,101673.31
2023-05-12T21:24:11.065Z,101665.81
2023-05-12T21:26:38.834Z,101669.69
2023-05-12T21:29:05.443Z,101665.91
2023-05-12T21:31:32.458Z,101669.22
2023-05-12T21:34:00.625Z,101674.69
2023-05-12T21:36:27.293Z,101674.88
2023-05-12T21:38:54.453Z,101672.91
2023-05-12T21:41:22.016Z,101676.00
2023-05-12T21:43:49.796Z,101679.34
2023-05-12T21:46:16.592Z,101684.16
2023-05-12T21:48:43.771Z,101675.03
2023-05-12T21:51:12.036Z,101681.22
2023-05-12T21:53:38.883Z,101687.38
2023-05-12T21:56:06.732Z,101681.72
2023-05-12T21:58:33.958Z,101677.63
2023-05-12T22:01:01.226Z,101678.03
2023-05-12T22:03:28.567Z,101682.66
2023-05-12T22:05:55.778Z,101681.81
2023-05-12T22:08:24.686Z,101679.72
2023-05-12T22:10:51.862Z,101681.31
2023-05-12T22:13:19.263Z,101690.00
2023-05-12T22:15:47.324Z,101678.81
2023-05-12T22:18:14.640Z,101684.81
2023-05-12T22:20:42.457Z,101682.59
2023-05-12T22:23:09.870Z,101681.06
2023-05-12T22:25:38.946Z,101685.34
2023-05-12T22:28:07.363Z,101686.72
2023-05-12T22:30:35.325Z,101688.50
2023-05-12T22:33:02.789Z,101690.72
2023-05-12T22:35:30.124Z,101690.06
2023-05-12T22:37:57.519Z,101686.25
2023-05-12T22:40:24.861Z,101692.34
2023-05-12T22:42:53.870Z,101693.66
2023-05-12T22:45:21.355Z,101681.66
2023-05-12T22:47:48.722Z,101687.41
2023-05-12T22:50:16.466Z,101681.25
2023-05-12T22:52:44.432Z,101685.84
2023-05-12T22:55:11.795Z,101682.38
2023-05-12T22:57:38.934Z,101679.63
2023-05-12T23:00:10.393Z,101680.06
2023-05-12T23:02:37.735Z,101679.19
2023-05-12T23:05:05.629Z,101687.81
2023-05-12T23:07:32.936Z,101693.22
2023-05-12T23:10:00.050Z,101683.91
2023-05-12T23:12:27.258Z,101679.81
2023-05-12T23:14:54.579Z,101670.56
2023-05-12T23:17:23.296Z,101673.44
2023-05-12T23:19:50.520Z,101665.94
2023-05-12T23:22:17.765Z,101668.22
2023-05-12T23:24:45.029Z,101662.78
2023-05-12T23:27:12.194Z,101669.44
2023-05-12T23:29:39.653Z,101667.66
2023-05-12T23:32:07.398Z,101666.34
2023-05-12T23:34:36.417Z,101661.56
2023-05-12T23:37:03.750Z,101661.72
2023-05-12T23:39:30.864Z,101663.31
2023-05-12T23:41:58.232Z,101663.09
2023-05-12T23:44:25.798Z,101657.53
2023-05-12T23:46:53.000Z,101658.03
2023-05-12T23:49:20.135Z,101654.81
2023-05-12T23:51:48.972Z,101654.63
2023-05-12T23:54:16.230Z,101657.47
2023-05-12T23:56:43.868Z,101663.84
2023-05-12T23:59:11.553Z,101666.78
